Time,TemperatureF,DewpointF,PressureIn,WindDirection,WindDirectionDegrees,WindSpeedMPH,WindSpeedGustMPH,Humidity,HourlyPrecipIn,Conditions,Clouds,dailyrainin,SolarRadiationWatts/m^2,SoftwareType,DateUTC
2013-12-08 00:03:00,11.0,6.0,-100.00,SW,229,0.0,4.0,81,0.00,,,0.01,0.000000,,2013-12-08 05:03:00,
2013-12-08 00:43:00,13.0,9.0,-100.00,WSW,256,0.0,3.0,83,0.00,,,0.01,0.000000,,2013-12-08 05:43:00,
2013-12-08 00:53:00,13.0,9.0,-100.00,WSW,256,0.0,3.0,83,0.00,,,0.01,0.000000,,2013-12-08 05:53:00,
2013-12-08 01:02:00,13.0,9.0,-100.00,WSW,256,0.0,3.0,83,0.00,,,0.01,0.000000,,2013-12-08 06:02:00,
2013-12-08 01:42:00,10.0,5.0,-100.00,West,268,0.0,4.0,81,0.00,,,0.01,0.000000,,2013-12-08 06:42:00,
2013-12-08 01:52:00,10.0,5.0,-100.00,West,268,0.0,4.0,81,0.00,,,0.01,0.000000,,2013-12-08 06:52:00,
2013-12-08 02:02:00,10.0,5.0,-100.00,West,268,0.0,4.0,81,0.00,,,0.01,0.000000,,2013-12-08 07:02:00,
2013-12-08 02:42:00,11.0,8.0,-100.00,North,354,1.0,5.0,86,0.00,,,0.01,0.000000,,2013-12-08 07:42:00,
2013-12-08 02:53:00,11.0,8.0,-100.00,North,354,1.0,5.0,86,0.00,,,0.01,0.000000,,2013-12-08 07:53:00,
2013-12-08 03:02:00,11.0,8.0,-100.00,North,354,1.0,5.0,86,0.00,,,0.01,0.000000,,2013-12-08 08:02:00,
2013-12-08 03:43:00,12.0,8.0,-100.00,North,355,1.0,8.0,83,0.00,,,0.01,0.000000,,2013-12-08 08:43:00,
2013-12-08 03:52:00,12.0,8.0,-100.00,North,355,1.0,8.0,83,0.00,,,0.01,0.000000,,2013-12-08 08:52:00,
2013-12-08 04:02:00,12.0,8.0,-100.00,North,355,1.0,8.0,83,0.00,,,0.01,0.000000,,2013-12-08 09:02:00,
2013-12-08 04:43:00,11.0,8.0,-100.00,NW,317,0.0,6.0,86,0.00,,,0.01,0.000000,,2013-12-08 09:43:00,
2013-12-08 04:54:00,11.0,8.0,-100.00,NW,317,0.0,6.0,86,0.00,,,0.01,0.000000,,2013-12-08 09:54:00,
2013-12-08 05:03:00,11.0,8.0,-100.00,NW,317,0.0,6.0,86,0.00,,,0.01,0.000000,,2013-12-08 10:03:00,
2013-12-08 05:43:00,12.0,9.0,-100.00,SE,130,0.0,0.0,86,0.00,,,0.01,0.000000,,2013-12-08 10:43:00,
2013-12-08 05:53:00,12.0,9.0,-100.00,SE,130,0.0,0.0,86,0.00,,,0.01,0.000000,,2013-12-08 10:53:00,
2013-12-08 06:03:00,12.0,9.0,-100.00,SE,130,0.0,0.0,86,0.00,,,0.01,0.000000,,2013-12-08 11:03:00,
2013-12-08 06:43:00,14.0,9.0,-100.00,East,93,0.0,0.0,81,0.00,,,0.01,0.000000,,2013-12-08 11:43:00,
2013-12-08 06:52:00,14.0,9.0,-100.00,East,93,0.0,0.0,81,0.00,,,0.01,0.000000,,2013-12-08 11:52:00,
2013-12-08 07:02:00,14.0,9.0,-100.00,East,93,0.0,0.0,81,0.00,,,0.01,0.000000,,2013-12-08 12:02:00,
2013-12-08 07:42:00,14.0,10.0,-100.00,SE,137,0.0,0.0,82,0.00,,,0.01,0.000000,,2013-12-08 12:42:00,
2013-12-08 07:53:00,14.0,10.0,-100.00,SE,137,0.0,0.0,82,0.00,,,0.01,0.000000,,2013-12-08 12:53:00,
2013-12-08 08:01:00,14.0,10.0,-100.00,SE,137,0.0,0.0,82,0.00,,,0.01,0.000000,,2013-12-08 13:01:00,
2013-12-08 08:42:00,15.0,10.0,-100.00,ESE,120,4.0,6.0,80,0.00,,,0.01,4.000000,,2013-12-08 13:42:00,
2013-12-08 08:53:00,15.0,10.0,-100.00,ESE,120,4.0,6.0,80,0.00,,,0.01,4.000000,,2013-12-08 13:53:00,
2013-12-08 09:02:00,15.0,10.0,-100.00,ESE,120,4.0,6.0,80,0.00,,,0.01,4.000000,,2013-12-08 14:02:00,
2013-12-08 09:42:00,16.0,9.0,-100.00,SE,131,6.0,10.0,75,0.00,,,0.01,20.000000,,2013-12-08 14:42:00,
2013-12-08 09:52:00,16.0,9.0,-100.00,SE,131,6.0,10.0,75,0.00,,,0.01,20.000000,,2013-12-08 14:52:00,
2013-12-08 10:02:00,16.0,9.0,-100.00,SE,131,6.0,10.0,75,0.00,,,0.01,20.000000,,2013-12-08 15:02:00,
2013-12-08 10:43:00,17.0,11.0,-100.00,SE,134,6.0,11.0,76,0.00,,,0.01,35.000000,,2013-12-08 15:43:00,
2013-12-08 10:54:00,17.0,11.0,-100.00,SE,134,6.0,11.0,76,0.00,,,0.01,35.000000,,2013-12-08 15:54:00,
2013-12-08 11:04:00,17.0,11.0,-100.00,SE,134,6.0,11.0,76,0.00,,,0.01,35.000000,,2013-12-08 16:04:00,
2013-12-08 11:43:00,17.0,11.0,-100.00,SE,136,6.0,13.0,76,0.00,,,0.01,56.000000,,2013-12-08 16:43:00,
2013-12-08 11:53:00,17.0,11.0,-100.00,SE,136,6.0,13.0,76,0.00,,,0.01,56.000000,,2013-12-08 16:53:00,
2013-12-08 12:02:00,17.0,11.0,-100.00,SE,136,6.0,13.0,76,0.00,,,0.01,56.000000,,2013-12-08 17:02:00,
2013-12-08 12:43:00,19.0,13.0,-100.00,SSE,149,8.0,15.0,76,0.00,,,0.01,82.000000,,2013-12-08 17:43:00,
2013-12-08 12:52:00,19.0,13.0,-100.00,SSE,149,8.0,15.0,76,0.00,,,0.01,82.000000,,2013-12-08 17:52:00,
2013-12-08 13:02:00,19.0,13.0,-100.00,SSE,149,8.0,15.0,76,0.00,,,0.01,82.000000,,2013-12-08 18:02:00,
2013-12-08 13:42:00,19.0,13.0,-100.00,SE,139,8.0,16.0,78,0.00,,,0.01,132.000000,,2013-12-08 18:42:00,
2013-12-08 13:52:00,19.0,13.0,-100.00,SE,139,8.0,16.0,78,0.00,,,0.01,132.000000,,2013-12-08 18:52:00,
2013-12-08 14:02:00,19.0,13.0,-100.00,SE,139,8.0,16.0,78,0.00,,,0.01,132.000000,,2013-12-08 19:02:00,
2013-12-08 14:42:00,19.0,15.0,-100.00,SE,144,9.0,14.0,84,0.00,,,0.00,68.000000,,2013-12-08 19:42:00,
2013-12-08 14:52:00,19.0,15.0,-100.00,SE,144,9.0,14.0,84,0.00,,,0.00,68.000000,,2013-12-08 19:52:00,
2013-12-08 15:02:00,19.0,15.0,-100.00,SE,144,9.0,14.0,84,0.00,,,0.00,68.000000,,2013-12-08 20:02:00,
2013-12-08 15:42:00,19.0,16.0,-100.00,SE,144,8.0,14.0,87,0.00,,,0.00,66.000000,,2013-12-08 20:42:00,
2013-12-08 15:53:00,19.0,16.0,-100.00,SE,144,8.0,14.0,87,0.00,,,0.00,66.000000,,2013-12-08 20:53:00,
2013-12-08 16:02:00,19.0,16.0,-100.00,SE,144,8.0,14.0,87,0.00,,,0.00,66.000000,,2013-12-08 21:02:00,
2013-12-08 16:43:00,18.0,16.0,-100.00,SE,139,8.0,15.0,90,0.00,,,0.00,22.000000,,2013-12-08 21:43:00,
2013-12-08 16:53:00,18.0,16.0,-100.00,SE,139,8.0,15.0,90,0.00,,,0.00,22.000000,,2013-12-08 21:53:00,
2013-12-08 17:03:00,18.0,16.0,-100.00,SE,139,8.0,15.0,90,0.00,,,0.00,22.000000,,2013-12-08 22:03:00,
2013-12-08 17:43:00,18.0,16.0,-100.00,SE,145,10.0,16.0,92,0.00,,,0.00,4.000000,,2013-12-08 22:43:00,
2013-12-08 17:53:00,18.0,16.0,-100.00,SE,145,10.0,16.0,92,0.00,,,0.00,4.000000,,2013-12-08 22:53:00,
2013-12-08 18:03:00,18.0,16.0,-100.00,SE,145,10.0,16.0,92,0.00,,,0.00,4.000000,,2013-12-08 23:03:00,
2013-12-08 18:42:00,18.0,16.0,-100.00,SSE,152,12.0,20.0,92,0.00,,,0.00,0.000000,,2013-12-08 23:42:00,
2013-12-08 18:53:00,18.0,16.0,-100.00,SSE,152,12.0,20.0,92,0.00,,,0.00,0.000000,,2013-12-08 23:53:00,
2013-12-08 19:02:00,18.0,16.0,-100.00,SSE,152,12.0,20.0,92,0.00,,,0.00,0.000000,,2013-12-09 00:02:00,
2013-12-08 19:42:00,18.0,16.0,-100.00,SSE,155,10.0,22.0,92,0.00,,,0.00,0.000000,,2013-12-09 00:42:00,
2013-12-08 19:52:00,18.0,16.0,-100.00,SSE,155,10.0,22.0,92,0.00,,,0.00,0.000000,,2013-12-09 00:52:00,
2013-12-08 20:02:00,18.0,16.0,-100.00,SSE,155,10.0,22.0,92,0.00,,,0.00,0.000000,,2013-12-09 01:02:00,
2013-12-08 20:42:00,19.0,17.0,-100.00,SSE,155,12.0,21.0,92,0.00,,,0.00,0.000000,,2013-12-09 01:42:00,
2013-12-08 20:52:00,19.0,17.0,-100.00,SSE,155,12.0,21.0,92,0.00,,,0.00,0.000000,,2013-12-09 01:52:00,
2013-12-08 21:02:00,19.0,17.0,-100.00,SSE,155,12.0,21.0,92,0.00,,,0.00,0.000000,,2013-12-09 02:02:00,
2013-12-08 21:42:00,20.0,18.0,-100.00,SSE,160,12.0,19.0,93,0.00,,,0.00,0.000000,,2013-12-09 02:42:00,
2013-12-08 21:53:00,20.0,18.0,-100.00,SSE,160,12.0,19.0,93,0.00,,,0.00,0.000000,,2013-12-09 02:53:00,
2013-12-08 22:02:00,20.0,18.0,-100.00,SSE,160,12.0,19.0,93,0.00,,,0.00,0.000000,,2013-12-09 03:02:00,
2013-12-08 22:43:00,20.0,18.0,-100.00,SSE,164,11.0,21.0,93,0.00,,,0.00,0.000000,,2013-12-09 03:43:00,
2013-12-08 22:54:00,20.0,18.0,-100.00,SSE,164,11.0,21.0,93,0.00,,,0.00,0.000000,,2013-12-09 03:54:00,
2013-12-08 23:03:00,20.0,18.0,-100.00,SSE,164,11.0,21.0,93,0.00,,,0.00,0.000000,,2013-12-09 04:03:00,
2013-12-08 23:43:00,21.0,20.0,-100.00,SSE,158,10.0,19.0,94,0.00,,,0.00,0.000000,,2013-12-09 04:43:00,
2013-12-08 23:53:00,21.0,20.0,-100.00,SSE,158,10.0,19.0,94,0.00,,,0.00,0.000000,,2013-12-09 04:53:00,